Time;durP1;ratioP1;P1;durP2;ratioP2;P2;SDS_P1;SDS_P2;PMS_P1;PMS_P2;Temp;Humidity;BMP_temperature;BMP_pressure;BME280_temperature;BME280_humidity;BME280_pressure;Samples;Min_cycle;Max_cycle;Signal;HPM_P1;HPM_P2
2022/10/26 00:01:11;;;;;;;11.27;5.80;;;;;;;11.43;100.00;101189.66;5049782;28;20380;-73
2022/10/26 00:03:38;;;;;;;9.60;5.50;;;;;;;11.37;100.00;101180.56;5052407;28;20052;-71
2022/10/26 00:06:06;;;;;;;11.98;5.28;;;;;;;11.36;100.00;101178.91;5059921;28;20032;-73
2022/10/26 00:08:32;;;;;;;11.73;5.55;;;;;;;11.43;100.00;101173.41;5072075;28;20062;-70
2022/10/26 00:10:57;;;;;;;15.63;4.93;;;;;;;11.43;100.00;101168.84;5072361;28;20017;-73
2022/10/26 00:13:22;;;;;;;11.63;5.75;;;;;;;11.44;100.00;101170.47;5072555;28;20025;-72
2022/10/26 00:15:48;;;;;;;13.45;5.63;;;;;;;11.44;100.00;101165.03;5071132;28;20081;-70
2022/10/26 00:18:13;;;;;;;9.63;5.22;;;;;;;11.47;100.00;101159.22;5072440;28;20052;-73
2022/10/26 00:20:38;;;;;;;9.82;5.07;;;;;;;11.50;100.00;101161.47;5071948;28;20511;-71
2022/10/26 00:23:04;;;;;;;12.40;5.18;;;;;;;11.48;100.00;101160.03;5072434;28;20024;-71
2022/10/26 00:25:29;;;;;;;14.88;5.32;;;;;;;11.46;100.00;101159.44;5069301;28;20264;-71
2022/10/26 00:27:54;;;;;;;12.95;5.57;;;;;;;11.47;100.00;101158.38;5072014;28;20021;-71
2022/10/26 00:30:19;;;;;;;9.98;4.85;;;;;;;11.46;100.00;101145.88;5072274;28;20029;-71
2022/10/26 00:32:45;;;;;;;11.13;5.32;;;;;;;11.45;100.00;101134.19;5071895;28;20031;-74
2022/10/26 00:35:10;;;;;;;11.10;4.90;;;;;;;11.47;100.00;101133.97;5071002;28;20116;-70
2022/10/26 00:37:35;;;;;;;12.18;4.85;;;;;;;11.48;100.00;101133.75;5051946;28;20506;-71
2022/10/26 00:40:00;;;;;;;10.35;5.22;;;;;;;11.46;100.00;101148.59;5052173;28;20021;-72
2022/10/26 00:42:26;;;;;;;9.10;4.80;;;;;;;11.47;100.00;101153.78;5051858;28;20398;-70
2022/10/26 00:45:06;;;;;;;11.35;5.10;;;;;;;11.51;100.00;101157.69;5051579;28;20021;-73
2022/10/26 00:47:42;;;;;;;13.57;5.15;;;;;;;11.53;100.00;101152.91;5066006;28;20081;-73
2022/10/26 00:50:31;;;;;;;11.88;4.68;;;;;;;11.60;100.00;101158.22;5050757;28;20345;-72
2022/10/26 00:52:59;;;;;;;10.50;5.00;;;;;;;11.54;100.00;101153.72;5052089;28;20021;-74
2022/10/26 00:55:30;;;;;;;9.48;4.55;;;;;;;11.52;100.00;101158.53;5051694;28;20456;-74
2022/10/26 00:57:56;;;;;;;9.02;5.03;;;;;;;11.56;100.00;101150.78;5072127;28;20394;-74
2022/10/26 01:00:21;;;;;;;13.40;4.65;;;;;;;11.53;100.00;101144.75;5070928;28;20020;-71
2022/10/26 01:02:50;;;;;;;9.73;4.97;;;;;;;11.61;100.00;101142.78;5070646;28;20062;-71
2022/10/26 01:05:18;;;;;;;12.77;5.13;;;;;;;11.57;100.00;101133.47;5070736;28;20021;-73
2022/10/26 01:07:44;;;;;;;12.70;5.18;;;;;;;11.61;100.00;101130.09;5075332;28;20028;-70
2022/10/26 01:10:10;;;;;;;10.75;5.40;;;;;;;11.62;100.00;101129.00;5075332;28;20459;-72
2022/10/26 01:12:36;;;;;;;11.38;5.05;;;;;;;11.64;100.00;101137.75;5075340;28;20119;-73
2022/10/26 01:15:02;;;;;;;12.25;4.70;;;;;;;11.64;100.00;101128.78;5074216;28;20028;-72
2022/10/26 01:18:00;;;;;;;8.98;5.88;;;;;;;11.67;100.00;101133.75;5055981;28;20029;-71
2022/10/26 01:21:02;;;;;;;9.55;5.22;;;;;;;11.69;100.00;101123.53;5055511;28;20028;-72
2022/10/26 01:23:34;;;;;;;9.43;5.15;;;;;;;11.66;100.00;101118.56;5055657;28;20039;-72
2022/10/26 01:26:13;;;;;;;13.40;5.68;;;;;;;11.66;100.00;101115.84;5059682;28;20344;-73
2022/10/26 01:28:56;;;;;;;6.60;4.97;;;;;;;11.68;100.00;101111.03;5075143;28;20059;-72
2022/10/26 01:31:29;;;;;;;12.38;5.53;;;;;;;11.64;100.00;101117.94;5075179;28;20459;-73
2022/10/26 01:34:16;;;;;;;7.60;5.35;;;;;;;11.67;100.00;101109.34;5074935;28;20028;-71
2022/10/26 01:36:50;;;;;;;12.77;5.15;;;;;;;11.62;100.00;101114.63;5073918;28;20044;-71
2022/10/26 01:39:20;;;;;;;10.75;5.05;;;;;;;11.65;100.00;101112.28;5075045;28;20028;-72
2022/10/26 01:41:50;;;;;;;10.00;5.25;;;;;;;11.62;100.00;101104.63;5074778;28;20020;-71
2022/10/26 01:44:22;;;;;;;14.52;5.82;;;;;;;11.65;100.00;101103.34;5074649;28;20072;-72
2022/10/26 01:46:49;;;;;;;;;;;;;;;11.79;100.00;101098.59;5062368;28;20029;-73
2022/10/26 01:49:19;;;;;;;7.82;5.75;;;;;;;11.67;100.00;101104.78;5054616;28;19928;-73
2022/10/26 01:51:47;;;;;;;10.05;5.95;;;;;;;11.63;100.00;101100.03;5054617;28;20063;-71
2022/10/26 01:54:13;;;;;;;11.52;5.78;;;;;;;11.68;100.00;101095.59;5054598;28;20368;-72
2022/10/26 01:56:41;;;;;;;11.93;5.93;;;;;;;11.66;100.00;101102.31;5054136;28;20024;-70
2022/10/26 01:59:14;;;;;;;13.63;6.05;;;;;;;11.66;100.00;101108.53;5053208;28;20036;-70
2022/10/26 02:01:50;;;;;;;11.30;5.38;;;;;;;11.67;100.00;101098.50;5050575;28;20460;-73
2022/10/26 02:04:15;;;;;;;11.73;6.15;;;;;;;11.62;100.00;101106.50;5073089;28;20119;-71
2022/10/26 02:06:59;;;;;;;9.43;5.43;;;;;;;11.67;100.00;101101.22;5074334;28;20103;-71
2022/10/26 02:09:35;;;;;;;9.65;5.75;;;;;;;11.65;100.00;101087.09;5074479;28;20341;-72
2022/10/26 02:12:08;;;;;;;12.55;5.82;;;;;;;11.64;100.00;101082.69;5073253;28;20048;-70
2022/10/26 02:14:40;;;;;;;11.40;5.43;;;;;;;11.61;100.00;101078.59;5059502;28;20032;-71
2022/10/26 02:17:33;;;;;;;8.05;5.18;;;;;;;11.68;100.00;101075.78;5086096;28;20076;-73
2022/10/26 02:20:12;;;;;;;12.85;5.13;;;;;;;11.64;100.00;101071.88;5073797;28;20027;-72
2022/10/26 02:22:44;;;;;;;7.82;5.13;;;;;;;11.63;100.00;101072.94;5072278;28;20048;-73
2022/10/26 02:25:26;;;;;;;10.50;5.00;;;;;;;11.68;100.00;101075.78;5073882;28;20043;-74
2022/10/26 02:27:57;;;;;;;9.38;5.20;;;;;;;11.65;100.00;101073.53;5073631;28;20460;-72
2022/10/26 02:30:23;;;;;;;9.45;4.93;;;;;;;11.65;100.00;101073.53;5074086;28;20028;-74
2022/10/26 02:32:53;;;;;;;9.88;5.03;;;;;;;11.66;100.00;101073.31;5066294;28;20495;-72
2022/10/26 02:35:22;;;;;;;11.07;4.63;;;;;;;11.64;100.00;101069.16;5064432;28;20024;-73
2022/10/26 02:37:50;;;;;;;9.48;4.80;;;;;;;11.66;100.00;101064.34;5073657;28;20027;-73
2022/10/26 02:40:19;;;;;;;7.13;4.50;;;;;;;11.63;100.00;101062.09;5073562;28;20353;-72
2022/10/26 02:42:46;;;;;;;9.52;4.75;;;;;;;11.66;100.00;101058.94;5066702;28;20037;-71
2022/10/26 02:45:17;;;;;;;7.00;4.05;;;;;;;11.66;100.00;101058.94;5052435;28;20418;-69
2022/10/26 02:47:43;;;;;;;8.25;4.03;;;;;;;11.69;100.00;101053.06;5053784;28;20029;-71
2022/10/26 02:50:08;;;;;;;15.55;4.18;;;;;;;11.70;100.00;101057.44;5053717;28;20032;-72
2022/10/26 02:53:04;;;;;;;8.18;4.32;;;;;;;11.72;100.00;101059.91;5056051;28;20020;-71
2022/10/26 02:55:39;;;;;;;9.07;4.15;;;;;;;11.69;100.00;101058.47;5071240;28;20044;-74
2022/10/26 02:58:10;;;;;;;7.93;3.53;;;;;;;11.66;100.00;101054.31;5073463;28;20028;-73
2022/10/26 03:00:36;;;;;;;8.68;3.75;;;;;;;11.69;100.00;101056.59;5069612;28;20597;-70
2022/10/26 03:03:03;;;;;;;12.88;4.00;;;;;;;11.67;100.00;101055.13;5064479;28;20029;-73
2022/10/26 03:05:35;;;;;;;7.05;3.75;;;;;;;11.67;100.00;101061.41;5053042;28;20021;-72
2022/10/26 03:08:01;;;;;;;10.68;4.22;;;;;;;11.69;100.00;101053.06;5053172;28;20055;-70
2022/10/26 03:10:27;;;;;;;9.52;3.78;;;;;;;11.68;100.00;101057.66;5053968;28;20033;-71
2022/10/26 03:12:52;;;;;;;10.75;3.58;;;;;;;11.66;100.00;101050.78;5053050;28;20361;-70
2022/10/26 03:15:18;;;;;;;14.75;4.15;;;;;;;11.68;100.00;101051.38;5053200;28;20025;-73
2022/10/26 03:17:43;;;;;;;8.70;3.80;;;;;;;11.69;100.00;101050.34;5052993;28;20163;-73
2022/10/26 03:20:09;;;;;;;6.82;3.53;;;;;;;11.68;100.00;101056.81;5064673;28;20105;-72
2022/10/26 03:22:34;;;;;;;9.07;3.55;;;;;;;11.67;100.00;101049.72;5073119;28;20123;-71
2022/10/26 03:25:00;;;;;;;7.10;3.90;;;;;;;11.68;100.00;101045.97;5070936;28;20061;-71
2022/10/26 03:27:25;;;;;;;11.48;3.85;;;;;;;11.70;100.00;101049.28;5054798;28;20023;-73
2022/10/26 03:29:51;;;;;;;10.02;4.13;;;;;;;11.71;100.00;101050.94;5067153;28;20031;-71
2022/10/26 03:32:17;;;;;;;10.02;3.67;;;;;;;11.70;100.00;101047.41;5071566;28;20098;-71
2022/10/26 03:34:42;;;;;;;9.50;3.45;;;;;;;11.73;100.00;101043.41;5072727;28;20028;-72
2022/10/26 03:37:07;;;;;;;9.73;3.65;;;;;;;11.71;100.00;101040.09;5072667;28;20029;-72
2022/10/26 03:39:32;;;;;;;9.15;3.30;;;;;;;11.70;100.00;101039.28;5070853;28;20025;-70
2022/10/26 03:41:58;;;;;;;9.38;4.13;;;;;;;11.73;100.00;101035.28;5061794;28;20020;-71
2022/10/26 03:44:23;;;;;;;8.00;3.50;;;;;;;11.72;100.00;101036.34;5067853;28;20029;-70
2022/10/26 03:46:49;;;;;;;9.32;3.63;;;;;;;11.65;100.00;101030.97;5065028;28;20040;-73
2022/10/26 03:49:14;;;;;;;11.38;3.70;;;;;;;11.63;100.00;101040.41;5052594;28;20512;-73
2022/10/26 03:51:39;;;;;;;8.50;3.55;;;;;;;11.61;100.00;101035.22;5070141;28;20029;-74
2022/10/26 03:54:05;;;;;;;7.53;3.58;;;;;;;11.64;100.00;101039.34;5072186;28;20044;-70
2022/10/26 03:56:30;;;;;;;9.07;3.30;;;;;;;11.64;100.00;101033.91;5069575;28;20159;-70
2022/10/26 03:58:55;;;;;;;10.57;3.60;;;;;;;11.63;100.00;101027.69;5053029;28;20364;-71
2022/10/26 04:01:21;;;;;;;10.52;3.20;;;;;;;11.63;100.00;101032.28;5058814;28;20024;-74
2022/10/26 04:03:46;;;;;;;11.35;3.72;;;;;;;11.65;100.00;101030.16;5052080;28;20032;-70
2022/10/26 04:06:11;;;;;;;6.43;3.20;;;;;;;11.68;100.00;101029.69;5052465;28;20475;-73
2022/10/26 04:08:37;;;;;;;8.23;3.45;;;;;;;11.68;100.00;101035.13;5052401;28;20024;-73
2022/10/26 04:11:02;;;;;;;9.30;3.42;;;;;;;11.64;100.00;101037.47;5061162;28;20029;-74
2022/10/26 04:13:27;;;;;;;9.65;3.42;;;;;;;11.67;100.00;101039.72;5065662;28;20032;-71
2022/10/26 04:15:53;;;;;;;8.85;3.25;;;;;;;11.70;100.00;101043.88;5071390;28;20036;-70
2022/10/26 04:18:18;;;;;;;6.90;3.20;;;;;;;11.67;100.00;101042.44;5072198;28;20016;-74
2022/10/26 04:20:43;;;;;;;5.95;3.42;;;;;;;11.72;100.00;101039.03;5061563;28;20045;-70
2022/10/26 04:23:12;;;;;;;10.07;3.10;;;;;;;11.69;100.00;101040.31;5052264;28;20526;-71
2022/10/26 04:25:37;;;;;;;9.85;3.17;;;;;;;11.73;100.00;101034.44;5053364;28;20024;-70
2022/10/26 04:28:04;;;;;;;7.10;3.03;;;;;;;11.74;100.00;101034.22;5052473;28;20106;-73
2022/10/26 04:30:31;;;;;;;12.50;3.47;;;;;;;11.77;100.00;101033.75;5065685;28;20052;-72
2022/10/26 04:32:56;;;;;;;7.40;2.85;;;;;;;11.78;100.00;101024.56;5066543;28;20082;-74
2022/10/26 04:35:22;;;;;;;9.02;3.30;;;;;;;11.79;100.00;101019.97;5061858;28;20403;-72
2022/10/26 04:37:47;;;;;;;7.20;2.97;;;;;;;11.81;100.00;101024.09;5062587;28;20173;-70
2022/10/26 04:40:13;;;;;;;7.20;2.80;;;;;;;11.83;100.00;101026.59;5060989;28;20063;-72
2022/10/26 04:42:43;;;;;;;7.18;3.17;;;;;;;11.84;100.00;101018.22;5075844;28;20017;-78
2022/10/26 04:45:09;;;;;;;12.15;3.00;;;;;;;11.86;100.00;101021.53;5075816;28;20028;-74
2022/10/26 04:47:35;;;;;;;7.55;3.03;;;;;;;11.86;100.00;101018.81;5075782;28;20422;-73
2022/10/26 04:50:00;;;;;;;7.28;2.95;;;;;;;11.88;100.00;101029.44;5064813;28;20103;-74
2022/10/26 04:52:25;;;;;;;5.70;3.30;;;;;;;11.91;100.00;101025.44;5056996;28;20029;-72
2022/10/26 04:54:50;;;;;;;6.75;2.65;;;;;;;11.94;100.00;101031.28;5054401;28;20132;-71
2022/10/26 04:57:16;;;;;;;7.07;3.03;;;;;;;11.95;100.00;101030.22;5057754;28;20483;-69
2022/10/26 04:59:41;;;;;;;8.43;3.13;;;;;;;11.96;100.00;101025.63;5065593;28;20103;-73
2022/10/26 05:02:06;;;;;;;6.85;2.97;;;;;;;11.97;100.00;101028.13;5072785;28;20116;-73
2022/10/26 05:04:31;;;;;;;11.30;3.20;;;;;;;12.03;100.00;101031.75;5075489;28;20020;-69
2022/10/26 05:06:57;;;;;;;13.35;4.18;;;;;;;12.02;100.00;101039.09;5075614;28;20051;-69
2022/10/26 05:09:22;;;;;;;9.57;3.00;;;;;;;12.04;100.00;101030.72;5073107;28;20491;-71
2022/10/26 05:11:47;;;;;;;9.88;3.00;;;;;;;12.03;100.00;101029.06;5075427;28;20063;-73
2022/10/26 05:14:13;;;;;;;7.75;3.05;;;;;;;12.04;100.00;101034.25;5075788;28;20028;-72
2022/10/26 05:16:38;;;;;;;10.13;3.30;;;;;;;12.06;100.00;101042.16;5074147;28;20025;-69
2022/10/26 05:19:03;;;;;;;10.02;3.45;;;;;;;12.07;100.00;101043.00;5061382;28;20107;-70
2022/10/26 05:21:29;;;;;;;9.88;3.22;;;;;;;12.05;100.00;101035.09;5055370;28;20045;-70
2022/10/26 05:23:54;;;;;;;13.50;6.35;;;;;;;12.08;100.00;101033.78;5055162;28;20029;-72
2022/10/26 05:26:21;;;;;;;11.68;5.35;;;;;;;12.08;100.00;101040.06;5055242;28;20116;-71
2022/10/26 05:28:47;;;;;;;10.65;5.65;;;;;;;12.06;100.00;101036.72;5064080;28;20472;-71
2022/10/26 05:31:15;;;;;;;21.58;13.77;;;;;;;12.09;100.00;101043.59;5075196;28;20070;-70
2022/10/26 05:33:40;;;;;;;12.23;6.65;;;;;;;12.09;100.00;101040.88;5075116;28;20021;-73
2022/10/26 05:36:06;;;;;;;8.52;3.60;;;;;;;12.12;100.00;101043.13;5073696;28;20504;-73
2022/10/26 05:38:31;;;;;;;8.43;3.40;;;;;;;12.13;100.00;101042.06;5064986;28;20021;-71
2022/10/26 05:40:58;;;;;;;6.80;3.63;;;;;;;12.13;100.00;101047.50;5055111;28;20044;-70
2022/10/26 05:43:23;;;;;;;7.78;3.30;;;;;;;12.13;100.00;101039.38;5054971;28;20055;-72
2022/10/26 05:45:50;;;;;;;6.50;3.47;;;;;;;12.16;100.00;101047.03;5054640;28;20441;-71
2022/10/26 05:48:15;;;;;;;11.10;4.80;;;;;;;12.14;100.00;101044.56;5059673;28;20024;-70
2022/10/26 05:50:40;;;;;;;22.45;14.23;;;;;;;12.16;100.00;101047.84;5075198;28;20032;-73
2022/10/26 05:53:06;;;;;;;10.63;6.57;;;;;;;12.15;100.00;101048.94;5074531;28;20020;-71
2022/10/26 05:55:32;;;;;;;12.38;5.60;;;;;;;12.15;100.00;101050.81;5075045;28;20028;-71
2022/10/26 05:57:57;;;;;;;9.40;3.85;;;;;;;12.17;100.00;101054.13;5070679;28;20039;-70
2022/10/26 06:00:25;;;;;;;9.35;3.33;;;;;;;12.16;100.00;101058.72;5051999;28;20031;-70
2022/10/26 06:03:08;;;;;;;7.60;3.33;;;;;;;12.18;100.00;101059.31;5053974;28;20036;-71
2022/10/26 06:05:54;;;;;;;9.80;3.00;;;;;;;12.21;100.00;101064.28;5053370;28;20029;-72
2022/10/26 06:08:22;;;;;;;8.70;3.15;;;;;;;12.20;100.00;101064.53;5056959;28;20407;-69
2022/10/26 06:10:48;;;;;;;11.45;3.10;;;;;;;12.18;100.00;101069.34;5054447;28;20060;-70
2022/10/26 06:13:14;;;;;;;6.10;3.20;;;;;;;12.21;100.00;101080.56;5052687;28;20113;-72
2022/10/26 06:15:58;;;;;;;11.35;3.92;;;;;;;12.22;100.00;101074.06;5052834;28;20017;-71
2022/10/26 06:18:38;;;;;;;9.00;3.90;;;;;;;12.20;100.00;101081.63;5059271;28;20066;-70
2022/10/26 06:21:06;;;;;;;10.15;3.15;;;;;;;12.20;100.00;101065.34;5073701;28;20044;-70
2022/10/26 06:23:53;;;;;;;9.65;3.50;;;;;;;12.25;100.00;101069.25;5074165;28;20594;-70
2022/10/26 06:26:30;;;;;;;8.32;3.42;;;;;;;12.22;100.00;101070.53;5074015;28;20055;-70
2022/10/26 06:29:10;;;;;;;9.73;3.42;;;;;;;12.18;100.00;101062.03;5072440;28;20025;-71
2022/10/26 06:31:35;;;;;;;8.90;3.40;;;;;;;12.17;100.00;101064.97;5074026;28;20059;-71
2022/10/26 06:34:01;;;;;;;10.48;3.28;;;;;;;12.16;100.00;101066.84;5073808;28;20440;-70
2022/10/26 06:36:27;;;;;;;11.35;3.58;;;;;;;12.17;100.00;101064.97;5073947;28;20025;-71
2022/10/26 06:38:58;;;;;;;8.57;3.10;;;;;;;12.14;100.00;101060.84;5061845;28;20115;-72
2022/10/26 06:41:25;;;;;;;11.68;3.45;;;;;;;12.15;100.00;101046.22;5053838;28;20040;-69
2022/10/26 06:43:51;;;;;;;7.25;3.30;;;;;;;12.15;100.00;101051.66;5053519;28;20372;-72
2022/10/26 06:46:20;;;;;;;10.63;3.67;;;;;;;12.17;100.00;101049.53;5052418;28;20020;-71
2022/10/26 06:48:51;;;;;;;10.32;3.92;;;;;;;12.15;100.00;101048.94;5055677;28;20037;-72
2022/10/26 06:51:17;;;;;;;10.35;3.78;;;;;;;12.16;100.00;101053.28;5058550;28;20043;-72
2022/10/26 06:53:57;;;;;;;11.48;3.28;;;;;;;12.18;100.00;101056.63;5055875;28;20025;-70
2022/10/26 06:56:23;;;;;;;9.02;3.30;;;;;;;12.20;100.00;101053.66;5053219;28;20047;-71
2022/10/26 06:58:49;;;;;;;8.50;3.40;;;;;;;12.23;100.00;101059.44;5052017;28;20486;-71
2022/10/26 07:01:16;;;;;;;9.10;3.67;;;;;;;12.26;100.00;101068.19;5061566;28;20162;-71
2022/10/26 07:03:41;;;;;;;9.18;3.45;;;;;;;12.28;100.00;101060.66;5071577;28;20367;-71
2022/10/26 07:06:07;;;;;;;6.97;3.20;;;;;;;12.28;100.00;101061.47;5064381;28;20020;-70
2022/10/26 07:08:33;;;;;;;9.07;3.45;;;;;;;12.27;100.00;101062.50;5061029;28;20039;-71
2022/10/26 07:10:58;;;;;;;8.63;3.45;;;;;;;12.26;100.00;101069.03;5053102;28;20110;-70
2022/10/26 07:13:23;;;;;;;9.38;3.50;;;;;;;12.28;100.00;101077.75;5057515;28;20372;-70
2022/10/26 07:15:49;;;;;;;8.50;2.92;;;;;;;12.29;100.00;101084.84;5055633;28;20102;-69
2022/10/26 07:18:14;;;;;;;8.00;3.20;;;;;;;12.30;100.00;101089.19;5053430;28;20476;-70
2022/10/26 07:20:40;;;;;;;11.73;3.38;;;;;;;12.31;100.00;101084.59;5061080;28;20467;-68
2022/10/26 07:23:11;;;;;;;8.63;3.60;;;;;;;12.30;100.00;101088.38;5076647;28;20383;-69
2022/10/26 07:25:39;;;;;;;8.27;3.50;;;;;;;12.33;100.00;101091.44;5072393;28;20400;-68
2022/10/26 07:28:05;;;;;;;8.55;3.60;;;;;;;12.36;100.00;101098.28;5070869;28;20107;-70
2022/10/26 07:30:30;;;;;;;7.80;3.50;;;;;;;12.38;100.00;101104.34;5066342;28;20051;-69
2022/10/26 07:33:04;;;;;;;8.52;3.55;;;;;;;12.40;100.00;101094.88;5069117;28;20485;-68
2022/10/26 07:35:29;;;;;;;10.10;3.42;;;;;;;12.44;100.00;101098.00;5068987;28;20036;-68
2022/10/26 07:37:56;;;;;;;9.57;3.25;;;;;;;12.46;100.00;101101.28;5052035;28;20037;-69
2022/10/26 07:40:22;;;;;;;11.23;3.45;;;;;;;12.53;100.00;101099.31;5055082;28;20293;-68
2022/10/26 07:42:47;;;;;;;8.15;3.30;;;;;;;12.58;100.00;101104.03;5052079;28;20286;-68
2022/10/26 07:45:12;;;;;;;14.57;3.25;;;;;;;12.64;100.00;101113.97;5050819;28;20456;-68
2022/10/26 07:47:37;;;;;;;8.52;3.40;;;;;;;12.71;100.00;101132.84;5062911;28;20024;-70
2022/10/26 07:50:04;;;;;;;9.32;3.42;;;;;;;12.74;100.00;101140.53;5056184;28;20456;-69
2022/10/26 07:52:30;;;;;;;5.10;2.90;;;;;;;12.79;100.00;101134.41;5053160;28;20788;-69
2022/10/26 07:54:55;;;;;;;6.13;2.80;;;;;;;12.84;100.00;101129.13;5051529;28;20393;-70
2022/10/26 07:57:20;;;;;;;9.38;2.95;;;;;;;12.85;100.00;101131.59;5051864;28;20104;-69
2022/10/26 07:59:45;;;;;;;5.43;2.78;;;;;;;12.92;100.00;101132.34;5051363;28;20465;-70
2022/10/26 08:02:11;;;;;;;9.77;2.97;;;;;;;12.99;100.00;101137.66;5049691;28;20060;-69
2022/10/26 08:04:36;;;;;;;7.32;2.83;;;;;;;13.06;100.00;101140.28;5067845;28;20468;-70
2022/10/26 08:07:01;;;;;;;7.88;3.08;;;;;;;13.11;100.00;101146.63;5070529;28;20102;-70
2022/10/26 08:09:27;;;;;;;7.78;3.25;;;;;;;13.17;100.00;101150.31;5063004;28;20025;-70
2022/10/26 08:11:52;;;;;;;6.05;2.70;;;;;;;13.23;100.00;101153.97;5051783;28;20043;-70
2022/10/26 08:14:17;;;;;;;7.68;2.88;;;;;;;13.28;100.00;101152.19;5066062;28;20055;-68
2022/10/26 08:16:42;;;;;;;5.28;2.63;;;;;;;13.37;100.00;101150.00;5074214;28;20032;-68
2022/10/26 08:19:08;;;;;;;10.02;2.90;;;;;;;13.46;100.00;101151.28;5068305;28;20028;-68
2022/10/26 08:21:33;;;;;;;5.75;2.75;;;;;;;13.52;100.00;101152.22;5062789;28;20040;-68
2022/10/26 08:23:58;;;;;;;8.43;2.97;;;;;;;13.58;100.00;101151.28;5075899;28;20103;-68
2022/10/26 08:26:24;;;;;;;8.27;2.78;;;;;;;13.61;100.00;101160.88;5069869;28;20033;-68
2022/10/26 08:28:49;;;;;;;10.30;2.78;;;;;;;13.67;100.00;101170.78;5056255;28;20020;-68
2022/10/26 08:31:14;;;;;;;7.88;2.80;;;;;;;13.70;100.00;101156.72;5055579;28;20028;-68
2022/10/26 08:33:40;;;;;;;7.95;2.85;;;;;;;13.75;100.00;101169.59;5056416;28;20020;-68
2022/10/26 08:36:05;;;;;;;7.38;2.60;;;;;;;13.83;100.00;101163.81;5055656;28;20017;-68
2022/10/26 08:38:32;;;;;;;6.10;2.70;;;;;;;13.87;100.00;101164.97;5054854;28;20021;-68
2022/10/26 08:40:58;;;;;;;4.72;2.40;;;;;;;13.93;100.00;101169.44;5055576;28;20268;-68
2022/10/26 08:43:47;;;;;;;8.30;2.47;;;;;;;14.03;100.00;101171.56;5055892;28;20286;-69
2022/10/26 08:46:24;;;;;;;7.43;2.55;;;;;;;14.13;100.00;101171.78;5054674;28;20448;-68
2022/10/26 08:48:54;;;;;;;9.75;2.90;;;;;;;14.23;100.00;101173.06;5058371;28;20021;-68
2022/10/26 08:51:26;;;;;;;9.93;2.70;;;;;;;14.30;100.00;101180.00;5055363;28;20363;-69
2022/10/26 08:54:04;;;;;;;13.93;3.63;;;;;;;14.40;100.00;101163.03;5055205;28;20067;-69
2022/10/26 08:56:41;;;;;;;8.63;2.90;;;;;;;14.47;100.00;101157.47;5056308;28;20035;-69
2022/10/26 08:59:27;;;;;;;5.00;2.35;;;;;;;14.52;100.00;101146.66;5054873;28;20416;-71
2022/10/26 09:01:53;;;;;;;8.80;2.90;;;;;;;14.57;100.00;101149.47;5055050;28;20031;-68
2022/10/26 09:04:25;;;;;;;7.97;2.70;;;;;;;14.64;100.00;101152.88;5055589;28;20032;-69
2022/10/26 09:07:06;;;;;;;9.48;2.72;;;;;;;14.79;100.00;101154.25;5062474;28;20021;-69
2022/10/26 09:09:45;;;;;;;;;;;;;;;14.82;100.00;101161.94;5056049;28;20071;-69
2022/10/26 09:12:51;;;;;;;8.10;2.60;;;;;;;14.93;100.00;101179.28;5055237;28;19904;-69
2022/10/26 09:15:42;;;;;;;7.15;2.42;;;;;;;15.03;100.00;101187.63;5061874;28;20040;-69
2022/10/26 09:18:07;;;;;;;10.40;2.83;;;;;;;15.12;100.00;101185.31;5057411;28;20037;-69
2022/10/26 09:21:03;;;;;;;10.70;2.80;;;;;;;15.19;100.00;101186.81;5074916;28;20047;-68
2022/10/26 09:23:57;;;;;;;5.07;2.45;;;;;;;15.29;100.00;101196.22;5072127;28;20486;-69
2022/10/26 09:26:31;;;;;;;8.25;2.60;;;;;;;15.41;100.00;101206.00;5054052;28;20056;-70
2022/10/26 09:29:01;;;;;;;8.85;2.60;;;;;;;15.48;100.00;101218.63;5054877;28;20056;-69
2022/10/26 09:31:28;;;;;;;9.15;2.75;;;;;;;15.55;100.00;101211.91;5055036;28;20029;-69
2022/10/26 09:34:01;;;;;;;6.55;2.60;;;;;;;15.64;100.00;101225.13;5057221;28;20028;-69
2022/10/26 09:36:26;;;;;;;5.18;2.40;;;;;;;15.73;100.00;101223.63;5074509;28;20028;-70
2022/10/26 09:39:02;;;;;;;7.78;2.65;;;;;;;15.79;100.00;101238.22;5074544;28;20020;-69
2022/10/26 09:41:41;;;;;;;5.95;2.58;;;;;;;15.83;100.00;101239.38;5065218;28;20070;-71
2022/10/26 09:44:26;;;;;;;6.25;2.70;;;;;;;15.85;100.00;101237.19;5054574;28;20375;-70
2022/10/26 09:46:59;;;;;;;11.02;2.72;;;;;;;15.84;100.00;101235.56;5055053;28;20017;-70
2022/10/26 09:49:40;;;;;;;5.20;2.50;;;;;;;15.82;100.00;101234.97;5054426;28;20051;-70
2022/10/26 09:52:06;;;;;;;6.67;2.57;;;;;;;15.81;100.00;101234.16;5067706;28;20406;-70
2022/10/26 09:54:31;;;;;;;4.57;2.25;;;;;;;15.83;100.00;101239.38;5062645;28;20021;-70
2022/10/26 09:57:01;;;;;;;12.30;2.85;;;;;;;15.84;100.00;101241.84;5064422;28;20452;-70
2022/10/26 09:59:26;;;;;;;6.07;2.40;;;;;;;15.90;100.00;101256.41;5069930;28;20037;-70
2022/10/26 10:01:52;;;;;;;10.68;3.05;;;;;;;15.89;100.00;101261.00;5052172;28;20045;-70
2022/10/26 10:04:24;;;;;;;11.45;3.03;;;;;;;15.93;100.00;101261.34;5060903;28;20024;-70
2022/10/26 10:06:52;;;;;;;5.53;3.03;;;;;;;16.03;100.00;101256.00;5055248;28;20269;-70
2022/10/26 10:09:19;;;;;;;7.13;2.70;;;;;;;16.07;100.00;101250.91;5054194;28;20090;-70
2022/10/26 10:11:54;;;;;;;6.43;2.22;;;;;;;16.10;100.00;101259.41;5054523;28;20030;-69
2022/10/26 10:14:23;;;;;;;6.80;2.50;;;;;;;16.18;100.00;101263.59;5053753;28;20039;-70
2022/10/26 10:16:52;;;;;;;7.13;2.75;;;;;;;16.24;100.00;101270.78;5071644;28;20039;-70
2022/10/26 10:19:22;;;;;;;8.27;2.70;;;;;;;16.28;100.00;101274.66;5074195;28;20511;-70
2022/10/26 10:21:49;;;;;;;8.18;2.70;;;;;;;16.35;100.00;101287.28;5064038;28;20040;-70
2022/10/26 10:24:23;;;;;;;6.85;2.63;;;;;;;16.36;100.00;101287.03;5054038;28;20115;-71
2022/10/26 10:26:55;;;;;;;8.25;2.70;;;;;;;16.40;100.00;101301.84;5063338;28;20051;-70
2022/10/26 10:29:24;;;;;;;7.45;2.70;;;;;;;16.47;100.00;101298.91;5054639;28;20349;-70
2022/10/26 10:31:55;;;;;;;11.55;2.97;;;;;;;16.52;100.00;101300.91;5082863;28;20036;-70
2022/10/26 10:34:21;;;;;;;9.30;2.90;;;;;;;16.49;100.00;101302.25;5053855;28;20518;-71
2022/10/26 10:36:47;;;;;;;9.35;2.97;;;;;;;16.60;100.00;101311.38;5053857;28;20025;-71
2022/10/26 10:39:32;;;;;;;8.32;3.17;;;;;;;16.63;100.00;101313.63;5057688;28;20074;-72
2022/10/26 10:41:57;;;;;;;13.82;3.00;;;;;;;16.66;100.00;101318.56;5055987;28;20039;-73
2022/10/26 10:44:32;;;;;;;7.57;2.40;;;;;;;16.71;100.00;101318.63;5052991;28;20437;-73
2022/10/26 10:47:05;;;;;;;8.18;2.90;;;;;;;16.76;100.00;101329.63;5052161;28;20050;-72
2022/10/26 10:49:31;;;;;;;8.07;2.60;;;;;;;16.77;100.00;101325.81;5053772;28;20028;-72
2022/10/26 10:51:57;;;;;;;10.30;2.95;;;;;;;16.80;100.00;101336.25;5055287;28;20045;-71
2022/10/26 10:54:30;;;;;;;7.95;2.88;;;;;;;16.84;100.00;101326.44;5058471;28;20028;-70
2022/10/26 10:57:30;;;;;;;9.23;2.47;;;;;;;16.88;100.00;101331.41;5062054;28;20028;-71
2022/10/26 11:00:03;;;;;;;6.25;2.53;;;;;;;16.92;100.00;101343.50;5061623;28;20029;-71
2022/10/26 11:02:54;;;;;;;7.45;2.30;;;;;;;16.91;100.00;101348.16;5061436;28;20028;-72
2022/10/26 11:05:28;;;;;;;5.50;2.13;;;;;;;16.96;100.00;101348.19;5075133;28;20090;-72
2022/10/26 11:08:08;;;;;;;9.48;2.90;;;;;;;17.03;100.00;101349.91;5052202;28;20580;-73
2022/10/26 11:10:37;;;;;;;7.82;2.40;;;;;;;17.09;100.00;101348.88;5055942;28;20036;-72
2022/10/26 11:13:14;;;;;;;7.85;2.50;;;;;;;17.13;100.00;101361.78;5053056;28;20411;-73
2022/10/26 11:15:41;;;;;;;7.10;2.38;;;;;;;17.17;100.00;101354.72;5052088;28;20119;-71
2022/10/26 11:18:18;;;;;;;6.40;2.10;;;;;;;17.21;100.00;101356.94;5053024;28;20021;-75
2022/10/26 11:20:52;;;;;;;7.57;2.40;;;;;;;17.27;100.00;101361.38;5053682;28;20064;-75
2022/10/26 11:23:22;;;;;;;6.18;2.33;;;;;;;17.41;100.00;101379.06;5052643;28;20033;-75
2022/10/26 11:26:08;;;;;;;3.42;1.75;;;;;;;17.51;100.00;101381.91;5053029;28;20028;-74